Time;durP1;ratioP1;P1;durP2;ratioP2;P2;SDS_P1;SDS_P2;PMS_P1;PMS_P2;Temp;Humidity;BMP_temperature;BMP_pressure;BME280_temperature;BME280_humidity;BME280_pressure;Samples;Min_cycle;Max_cycle;Signal;HPM_P1;HPM_P2
2022/07/21 00:00:07;;;;;;;;;;;;;;;;;;351401;28;1035;-62
2022/07/21 00:00:18;;;;;;;;;;;;;;;;;;351521;28;773;-62
2022/07/21 00:00:28;;;;;;;;;;;;;;;;;;351451;28;928;-62
2022/07/21 00:00:38;;;;;;;;;;;;;;;;;;351445;28;972;-62
2022/07/21 00:00:48;;;;;;;;;;;;;;;;;;351481;28;929;-62
2022/07/21 00:00:59;;;;;;;;;;;;;;;;;;351426;28;841;-62
2022/07/21 00:01:09;;;;;;;;;;;;;;;;;;351445;28;897;-62
2022/07/21 00:01:19;;;;;;;;;;;;;;;;;;351497;28;968;-62
2022/07/21 00:01:30;;;;;;;;;;;;;;;;;;351410;28;852;-62
2022/07/21 00:01:40;;;;;;;;;;;;;;;;;;351349;28;793;-62
2022/07/21 00:01:51;;;;;;;;;;;;;;;;;;351485;28;924;-62
2022/07/21 00:02:01;;;;;;;;;;;;;;;;;;351423;28;1267;-62
2022/07/21 00:02:12;;;;;;;;;;;;;;;;;;351394;28;963;-62
2022/07/21 00:02:22;;;;;;;;;;;;;;;;;;351477;28;862;-62
2022/07/21 00:02:32;;;;;;;;;;;;;;;;;;351435;28;931;-62
2022/07/21 00:02:43;;;;;;;;;;;;;;;;;;351439;28;903;-62
2022/07/21 00:02:53;;;;;;;;;;;;;;;;;;351440;28;908;-62
2022/07/21 00:03:04;;;;;;;;;;;;;;;;;;351465;28;987;-62
2022/07/21 00:03:14;;;;;;;;;;;;;;;;;;351411;28;924;-62
2022/07/21 00:03:24;;;;;;;;;;;;;;;;;;351516;28;806;-62
2022/07/21 00:03:35;;;;;;;;;;;;;;;;;;351418;28;912;-62
2022/07/21 00:03:45;;;;;;;;;;;;;;;;;;351431;28;952;-62
2022/07/21 00:03:56;;;;;;;;;;;;;;;;;;351481;28;900;-62
2022/07/21 00:04:06;;;;;;;;;;;;;;;;;;351470;28;912;-62
2022/07/21 00:04:16;;;;;;;;;;;;;;;;;;351517;28;782;-63
2022/07/21 00:04:27;;;;;;;;;;;;;;;;;;351430;28;913;-62
2022/07/21 00:04:37;;;;;;;;;;;;;;;;;;351420;28;916;-62
2022/07/21 00:04:47;;;;;;;;;;;;;;;;;;351400;28;967;-62
2022/07/21 00:04:57;;;;;;;;;;;;;;;;;;351466;28;822;-62
2022/07/21 00:05:08;;;;;;;;;;;;;;;;;;351421;28;833;-62
2022/07/21 00:05:19;;;;;;;;;;;;;;;;;;351373;28;861;-62
2022/07/21 00:05:29;;;;;;;;;;;;;;;;;;351402;28;913;-62
2022/07/21 00:05:39;;;;;;;;;;;;;;;;;;351349;28;1117;-62
2022/07/21 00:05:50;;;;;;;;;;;;;;;;;;351333;28;1906;-62
2022/07/21 00:06:00;;;;;;;;;;;;;;;;;;351477;28;814;-62
2022/07/21 00:06:10;;;;;;;;;;;;;;;;;;351380;28;1000;-62
2022/07/21 00:06:20;;;;;;;;;;;;;;;;;;351435;28;908;-62
2022/07/21 00:06:31;;;;;;;;;;;;;;;;;;351414;28;904;-62
2022/07/21 00:06:41;;;;;;;;;;;;;;;;;;351416;28;987;-62
2022/07/21 00:06:52;;;;;;;;;;;;;;;;;;351470;28;967;-62
2022/07/21 00:07:02;;;;;;;;;;;;;;;;;;351440;28;944;-62
2022/07/21 00:07:12;;;;;;;;;;;;;;;;;;351395;27;948;-62
2022/07/21 00:07:22;;;;;;;;;;;;;;;;;;350591;28;1448;-62
2022/07/21 00:07:33;;;;;;;;;;;;;;;;;;349836;28;1785;-62
2022/07/21 00:07:43;;;;;;;;;;;;;;;;;;351371;28;974;-62
2022/07/21 00:07:54;;;;;;;;;;;;;;;;;;351373;28;967;-62
2022/07/21 00:08:04;;;;;;;;;;;;;;;;;;351484;28;916;-62
2022/07/21 00:08:14;;;;;;;;;;;;;;;;;;351382;28;1019;-62
2022/07/21 00:08:25;;;;;;;;;;;;;;;;;;351492;28;967;-62
2022/07/21 00:08:35;;;;;;;;;;;;;;;;;;351418;28;924;-62
2022/07/21 00:08:45;;;;;;;;;;;;;;;;;;351500;28;860;-62
2022/07/21 00:08:55;;;;;;;;;;;;;;;;;;351465;28;905;-62
2022/07/21 00:09:06;;;;;;;;;;;;;;;;;;351488;28;920;-62
2022/07/21 00:09:16;;;;;;;;;;;;;;;;;;351505;28;833;-62
2022/07/21 00:09:27;;;;;;;;;;;;;;;;;;351444;28;954;-62
2022/07/21 00:09:37;;;;;;;;;;;;;;;;;;351457;28;912;-62
2022/07/21 00:09:47;;;;;;;;;;;;;;;;;;351442;28;766;-62
2022/07/21 00:09:57;;;;;;;;;;;;;;;;;;351439;28;956;-62
2022/07/21 00:10:08;;;;;;;;;;;;;;;;;;351440;28;943;-62
2022/07/21 00:10:19;;;;;;;;;;;;;;;;;;350234;28;1818;-62
2022/07/21 00:10:29;;;;;;;;;;;;;;;;;;352365;28;932;-62
2022/07/21 00:10:40;;;;;;;;;;;;;;;;;;352906;28;833;-62
2022/07/21 00:10:50;;;;;;;;;;;;;;;;;;352908;28;951;-62
2022/07/21 00:11:01;;;;;;;;;;;;;;;;;;352874;28;979;-62
2022/07/21 00:11:11;;;;;;;;;;;;;;;;;;352849;28;816;-62
2022/07/21 00:11:21;;;;;;;;;;;;;;;;;;351766;28;1907;-62
2022/07/21 00:11:32;;;;;;;;;;;;;;;;;;352875;28;828;-62
2022/07/21 00:11:42;;;;;;;;;;;;;;;;;;352819;28;1080;-62
2022/07/21 00:11:52;;;;;;;;;;;;;;;;;;352820;28;932;-62
2022/07/21 00:12:03;;;;;;;;;;;;;;;;;;352737;28;1019;-62
2022/07/21 00:12:14;;;;;;;;;;;;;;;;;;352840;28;1014;-62
2022/07/21 00:12:24;;;;;;;;;;;;;;;;;;352920;28;979;-62
2022/07/21 00:12:34;;;;;;;;;;;;;;;;;;352927;28;857;-62
2022/07/21 00:12:45;;;;;;;;;;;;;;;;;;352793;28;994;-62
2022/07/21 00:12:55;;;;;;;;;;;;;;;;;;352850;28;900;-62
2022/07/21 00:13:06;;;;;;;;;;;;;;;;;;352865;28;865;-62
2022/07/21 00:13:16;;;;;;;;;;;;;;;;;;352837;28;920;-62
2022/07/21 00:13:26;;;;;;;;;;;;;;;;;;352876;28;849;-62
2022/07/21 00:13:36;;;;;;;;;;;;;;;;;;352885;28;655;-62
2022/07/21 00:13:46;;;;;;;;;;;;;;;;;;352775;28;916;-62
2022/07/21 00:13:58;;;;;;;;;;;;;;;;;;352857;28;809;-62
2022/07/21 00:14:09;;;;;;;;;;;;;;;;;;352902;28;912;-61
2022/07/21 00:14:19;;;;;;;;;;;;;;;;;;351576;28;1316;-62
2022/07/21 00:14:30;;;;;;;;;;;;;;;;;;351524;28;841;-62
2022/07/21 00:14:40;;;;;;;;;;;;;;;;;;351428;28;932;-62
2022/07/21 00:14:50;;;;;;;;;;;;;;;;;;351420;28;837;-62
2022/07/21 00:15:00;;;;;;;;;;;;;;;;;;351463;28;936;-62
2022/07/21 00:15:12;;;;;;;;;;;;;;;;;;351412;28;916;-62
2022/07/21 00:15:24;;;;;;;;;;;;;;;;;;351465;28;925;-62
2022/07/21 00:15:34;;;;;;;;;;;;;;;;;;351445;28;991;-62
2022/07/21 00:15:45;;;;;;;;;;;;;;;;;;351503;28;905;-62
2022/07/21 00:15:55;;;;;;;;;;;;;;;;;;351452;28;987;-63
2022/07/21 00:16:06;;;;;;;;;;;;;;;;;;351338;28;932;-62
2022/07/21 00:16:16;;;;;;;;;;;;;;;;;;351436;28;1040;-62
2022/07/21 00:16:26;;;;;;;;;;;;;;;;;;350197;28;941;-63
2022/07/21 00:16:37;;;;;;;;;;;;;;;;;;351475;28;905;-62
2022/07/21 00:16:47;;;;;;;;;;;;;;;;;;351403;28;937;-62
2022/07/21 00:16:58;;;;;;;;;;;;;;;;;;351318;28;992;-62
2022/07/21 00:17:08;;;;;;;;;;;;;;;;;;351425;28;703;-62
2022/07/21 00:17:18;;;;;;;;;;;;;;;;;;351468;28;877;-62
2022/07/21 00:17:29;;;;;;;;;;;;;;;;;;351394;28;940;-62
2022/07/21 00:17:39;;;;;;;;;;;;;;;;;;351457;28;917;-62
2022/07/21 00:17:50;;;;;;;;;;;;;;;;;;351444;28;971;-62
2022/07/21 00:18:00;;;;;;;;;;;;;;;;;;351368;28;932;-62
2022/07/21 00:18:10;;;;;;;;;;;;;;;;;;351389;28;981;-62
2022/07/21 00:18:20;;;;;;;;;;;;;;;;;;351469;28;946;-62
2022/07/21 00:18:31;;;;;;;;;;;;;;;;;;351405;28;963;-62
2022/07/21 00:18:42;;;;;;;;;;;;;;;;;;351471;28;987;-62
2022/07/21 00:18:52;;;;;;;;;;;;;;;;;;351441;28;817;-62
2022/07/21 00:19:02;;;;;;;;;;;;;;;;;;351394;28;909;-62
2022/07/21 00:19:13;;;;;;;;;;;;;;;;;;351473;28;932;-62
2022/07/21 00:19:23;;;;;;;;;;;;;;;;;;351448;28;928;-62
2022/07/21 00:19:33;;;;;;;;;;;;;;;;;;351431;27;865;-62
2022/07/21 00:19:43;;;;;;;;;;;;;;;;;;351354;28;996;-62
2022/07/21 00:19:53;;;;;;;;;;;;;;;;;;351411;28;944;-62
2022/07/21 00:20:05;;;;;;;;;;;;;;;;;;351427;28;954;-62
2022/07/21 00:20:15;;;;;;;;;;;;;;;;;;351298;28;1213;-62
2022/07/21 00:20:27;;;;;;;;;;;;;;;;;;351384;28;885;-62
2022/07/21 00:20:37;;;;;;;;;;;;;;;;;;351280;28;1353;-62
2022/07/21 00:20:48;;;;;;;;;;;;;;;;;;351478;28;936;-62
2022/07/21 00:20:58;;;;;;;;;;;;;;;;;;350596;28;1326;-62
2022/07/21 00:21:08;;;;;;;;;;;;;;;;;;350073;28;980;-62
2022/07/21 00:21:19;;;;;;;;;;;;;;;;;;349994;28;917;-62
2022/07/21 00:21:29;;;;;;;;;;;;;;;;;;350040;28;1007;-62
2022/07/21 00:21:39;;;;;;;;;;;;;;;;;;350030;28;916;-62
2022/07/21 00:21:49;;;;;;;;;;;;;;;;;;350008;28;1007;-62
2022/07/21 00:22:00;;;;;;;;;;;;;;;;;;349998;28;991;-62
2022/07/21 00:22:10;;;;;;;;;;;;;;;;;;350036;28;963;-62
2022/07/21 00:22:20;;;;;;;;;;;;;;;;;;349969;28;909;-62
2022/07/21 00:22:30;;;;;;;;;;;;;;;;;;350044;28;798;-62
2022/07/21 00:22:41;;;;;;;;;;;;;;;;;;350001;28;995;-62
2022/07/21 00:22:52;;;;;;;;;;;;;;;;;;350006;28;797;-62
2022/07/21 00:23:02;;;;;;;;;;;;;;;;;;350042;28;929;-62
2022/07/21 00:23:12;;;;;;;;;;;;;;;;;;350026;28;850;-62
2022/07/21 00:23:23;;;;;;;;;;;;;;;;;;350033;28;888;-62
2022/07/21 00:23:34;;;;;;;;;;;;;;;;;;350086;28;803;-62
2022/07/21 00:23:44;;;;;;;;;;;;;;;;;;350059;28;979;-62
2022/07/21 00:23:55;;;;;;;;;;;;;;;;;;350086;28;924;-62
2022/07/21 00:24:05;;;;;;;;;;;;;;;;;;349948;28;983;-62
2022/07/21 00:24:15;;;;;;;;;;;;;;;;;;350066;28;913;-62
2022/07/21 00:24:25;;;;;;;;;;;;;;;;;;350085;28;850;-62
2022/07/21 00:24:36;;;;;;;;;;;;;;;;;;350024;28;908;-62
2022/07/21 00:24:46;;;;;;;;;;;;;;;;;;349967;28;917;-62
2022/07/21 00:24:58;;;;;;;;;;;;;;;;;;349942;28;1051;-62
2022/07/21 00:25:09;;;;;;;;;;;;;;;;;;350007;28;964;-62
2022/07/21 00:25:19;;;;;;;;;;;;;;;;;;349965;28;984;-62
2022/07/21 00:25:29;;;;;;;;;;;;;;;;;;350084;28;995;-62
2022/07/21 00:25:40;;;;;;;;;;;;;;;;;;350007;28;1071;-62
2022/07/21 00:25:50;;;;;;;;;;;;;;;;;;349891;28;1977;-62
2022/07/21 00:26:01;;;;;;;;;;;;;;;;;;350012;28;936;-62
2022/07/21 00:26:11;;;;;;;;;;;;;;;;;;350015;28;861;-62
2022/07/21 00:26:21;;;;;;;;;;;;;;;;;;349956;28;1008;-62
2022/07/21 00:26:32;;;;;;;;;;;;;;;;;;349975;28;975;-62
2022/07/21 00:26:42;;;;;;;;;;;;;;;;;;349942;28;957;-62
2022/07/21 00:26:52;;;;;;;;;;;;;;;;;;349999;28;957;-62
2022/07/21 00:27:02;;;;;;;;;;;;;;;;;;350019;28;944;-62
2022/07/21 00:27:13;;;;;;;;;;;;;;;;;;350021;28;980;-62
2022/07/21 00:27:23;;;;;;;;;;;;;;;;;;349973;28;979;-62
2022/07/21 00:27:33;;;;;;;;;;;;;;;;;;350046;28;932;-62
2022/07/21 00:27:43;;;;;;;;;;;;;;;;;;350008;28;1130;-62
2022/07/21 00:27:54;;;;;;;;;;;;;;;;;;349967;28;988;-62
2022/07/21 00:28:04;;;;;;;;;;;;;;;;;;350218;28;1328;-62
2022/07/21 00:28:15;;;;;;;;;;;;;;;;;;351489;28;825;-62
2022/07/21 00:28:25;;;;;;;;;;;;;;;;;;351365;28;956;-62
2022/07/21 00:28:35;;;;;;;;;;;;;;;;;;351381;28;916;-62
2022/07/21 00:28:45;;;;;;;;;;;;;;;;;;351358;28;1088;-62
2022/07/21 00:28:56;;;;;;;;;;;;;;;;;;351289;28;1985;-62
2022/07/21 00:29:06;;;;;;;;;;;;;;;;;;351401;28;912;-62
2022/07/21 00:29:16;;;;;;;;;;;;;;;;;;351394;28;1008;-62
2022/07/21 00:29:26;;;;;;;;;;;;;;;;;;351397;28;868;-62
2022/07/21 00:29:37;;;;;;;;;;;;;;;;;;351328;28;971;-62
2022/07/21 00:29:47;;;;;;;;;;;;;;;;;;351398;28;932;-62
2022/07/21 00:29:57;;;;;;;;;;;;;;;;;;351392;28;916;-62
2022/07/21 00:30:09;;;;;;;;;;;;;;;;;;351426;28;860;-62
2022/07/21 00:30:19;;;;;;;;;;;;;;;;;;351436;28;871;-62
2022/07/21 00:30:29;;;;;;;;;;;;;;;;;;351436;28;830;-62
2022/07/21 00:30:39;;;;;;;;;;;;;;;;;;351416;28;983;-62
2022/07/21 00:30:49;;;;;;;;;;;;;;;;;;351353;28;1003;-62
2022/07/21 00:31:00;;;;;;;;;;;;;;;;;;351353;28;868;-62
2022/07/21 00:31:10;;;;;;;;;;;;;;;;;;351423;28;970;-62
2022/07/21 00:31:21;;;;;;;;;;;;;;;;;;351388;28;949;-62
2022/07/21 00:31:31;;;;;;;;;;;;;;;;;;351461;28;920;-62
2022/07/21 00:31:41;;;;;;;;;;;;;;;;;;351354;28;875;-62
2022/07/21 00:31:51;;;;;;;;;;;;;;;;;;350614;28;1367;-62
2022/07/21 00:32:03;;;;;;;;;;;;;;;;;;350860;28;916;-62
2022/07/21 00:32:14;;;;;;;;;;;;;;;;;;351328;28;979;-62
2022/07/21 00:32:24;;;;;;;;;;;;;;;;;;351435;28;968;-63
2022/07/21 00:32:34;;;;;;;;;;;;;;;;;;351420;28;920;-62
2022/07/21 00:32:44;;;;;;;;;;;;;;;;;;351406;28;964;-62
2022/07/21 00:32:55;;;;;;;;;;;;;;;;;;351362;28;820;-62
2022/07/21 00:33:05;;;;;;;;;;;;;;;;;;351495;28;952;-62
2022/07/21 00:33:15;;;;;;;;;;;;;;;;;;351404;28;909;-62
2022/07/21 00:33:25;;;;;;;;;;;;;;;;;;351421;28;921;-62
2022/07/21 00:33:36;;;;;;;;;;;;;;;;;;351365;28;976;-62
2022/07/21 00:33:46;;;;;;;;;;;;;;;;;;351439;28;913;-62
2022/07/21 00:33:56;;;;;;;;;;;;;;;;;;351477;28;920;-62
2022/07/21 00:34:06;;;;;;;;;;;;;;;;;;351398;28;1011;-62
2022/07/21 00:34:17;;;;;;;;;;;;;;;;;;351328;28;1031;-62
2022/07/21 00:34:27;;;;;;;;;;;;;;;;;;351409;28;924;-62
2022/07/21 00:34:37;;;;;;;;;;;;;;;;;;351380;28;837;-61
2022/07/21 00:34:47;;;;;;;;;;;;;;;;;;351390;28;912;-62
2022/07/21 00:34:57;;;;;;;;;;;;;;;;;;351345;28;923;-62
2022/07/21 00:35:08;;;;;;;;;;;;;;;;;;351525;28;885;-61
2022/07/21 00:35:18;;;;;;;;;;;;;;;;;;351413;28;979;-62
2022/07/21 00:35:29;;;;;;;;;;;;;;;;;;351421;28;995;-62
2022/07/21 00:35:39;;;;;;;;;;;;;;;;;;351389;28;974;-62
2022/07/21 00:35:49;;;;;;;;;;;;;;;;;;351458;28;952;-62
2022/07/21 00:36:00;;;;;;;;;;;;;;;;;;351390;28;825;-62
2022/07/21 00:36:10;;;;;;;;;;;;;;;;;;351448;28;904;-62
2022/07/21 00:36:20;;;;;;;;;;;;;;;;;;351331;28;1383;-62
2022/07/21 00:36:30;;;;;;;;;;;;;;;;;;351411;28;916;-62
2022/07/21 00:36:41;;;;;;;;;;;;;;;;;;351431;28;908;-62
2022/07/21 00:36:51;;;;;;;;;;;;;;;;;;351414;28;959;-62
2022/07/21 00:37:01;;;;;;;;;;;;;;;;;;351279;28;892;-62
2022/07/21 00:37:11;;;;;;;;;;;;;;;;;;351435;28;1037;-62
2022/07/21 00:37:23;;;;;;;;;;;;;;;;;;351209;28;1461;-62
2022/07/21 00:37:34;;;;;;;;;;;;;;;;;;351000;28;1439;-62
2022/07/21 00:37:44;;;;;;;;;;;;;;;;;;351380;28;940;-62
2022/07/21 00:37:54;;;;;;;;;;;;;;;;;;351412;28;908;-62
2022/07/21 00:38:04;;;;;;;;;;;;;;;;;;351344;28;817;-62
2022/07/21 00:38:15;;;;;;;;;;;;;;;;;;351425;28;782;-62
2022/07/21 00:38:25;;;;;;;;;;;;;;;;;;351303;28;1130;-62
2022/07/21 00:38:35;;;;;;;;;;;;;;;;;;351450;28;1102;-62
2022/07/21 00:38:45;;;;;;;;;;;;;;;;;;351426;28;1007;-62
2022/07/21 00:38:56;;;;;;;;;;;;;;;;;;351434;28;975;-62
2022/07/21 00:39:06;;;;;;;;;;;;;;;;;;351328;28;842;-62
2022/07/21 00:39:16;;;;;;;;;;;;;;;;;;351428;28;913;-62
2022/07/21 00:39:27;;;;;;;;;;;;;;;;;;351356;28;863;-62
2022/07/21 00:39:37;;;;;;;;;;;;;;;;;;351438;28;1008;-62
2022/07/21 00:39:47;;;;;;;;;;;;;;;;;;351367;28;921;-62
2022/07/21 00:39:58;;;;;;;;;;;;;;;;;;351434;28;991;-62
2022/07/21 00:40:09;;;;;;;;;;;;;;;;;;351394;28;972;-62
2022/07/21 00:40:20;;;;;;;;;;;;;;;;;;350463;28;1827;-62
2022/07/21 00:40:30;;;;;;;;;;;;;;;;;;352857;28;864;-62
2022/07/21 00:40:41;;;;;;;;;;;;;;;;;;352885;28;931;-62
2022/07/21 00:40:52;;;;;;;;;;;;;;;;;;352819;28;865;-62
2022/07/21 00:41:03;;;;;;;;;;;;;;;;;;352683;28;908;-62
2022/07/21 00:41:13;;;;;;;;;;;;;;;;;;352855;28;840;-62
2022/07/21 00:41:24;;;;;;;;;;;;;;;;;;352831;28;794;-62
2022/07/21 00:41:34;;;;;;;;;;;;;;;;;;352803;28;968;-62
2022/07/21 00:41:44;;;;;;;;;;;;;;;;;;352843;28;987;-62
2022/07/21 00:41:54;;;;;;;;;;;;;;;;;;352875;28;995;-62
2022/07/21 00:42:05;;;;;;;;;;;;;;;;;;352807;28;905;-62
2022/07/21 00:42:28;;;;;;;;;;;;;;;;;;352702;28;1008;-62
2022/07/21 00:42:39;;;;;;;;;;;;;;;;;;352838;28;924;-62
2022/07/21 00:42:49;;;;;;;;;;;;;;;;;;352796;28;975;-62
2022/07/21 00:43:00;;;;;;;;;;;;;;;;;;352871;28;781;-62
2022/07/21 00:43:10;;;;;;;;;;;;;;;;;;352750;28;920;-62
2022/07/21 00:43:21;;;;;;;;;;;;;;;;;;352855;28;967;-62
2022/07/21 00:43:31;;;;;;;;;;;;;;;;;;352759;28;877;-62
2022/07/21 00:43:41;;;;;;;;;;;;;;;;;;352814;28;959;-62
2022/07/21 00:43:51;;;;;;;;;;;;;;;;;;352823;28;960;-62
2022/07/21 00:44:02;;;;;;;;;;;;;;;;;;352750;28;996;-62
2022/07/21 00:44:22;;;;;;;;;;;;;;;;;;352820;28;870;-62
2022/07/21 00:44:32;;;;;;;;;;;;;;;;;;352833;28;896;-62
2022/07/21 00:44:42;;;;;;;;;;;;;;;;;;352828;28;781;-62
2022/07/21 00:44:53;;;;;;;;;;;;;;;;;;352769;28;972;-62
2022/07/21 00:45:05;;;;;;;;;;;;;;;;;;352826;28;904;-62
2022/07/21 00:45:15;;;;;;;;;;;;;;;;;;352718;28;873;-62
2022/07/21 00:45:25;;;;;;;;;;;;;;;;;;352865;28;924;-62
2022/07/21 00:45:36;;;;;;;;;;;;;;;;;;352829;28;798;-62
2022/07/21 00:45:46;;;;;;;;;;;;;;;;;;352787;28;821;-62
2022/07/21 00:45:56;;;;;;;;;;;;;;;;;;352800;28;1969;-62
2022/07/21 00:46:07;;;;;;;;;;;;;;;;;;352829;28;1024;-61
2022/07/21 00:46:19;;;;;;;;;;;;;;;;;;352767;28;944;-62
2022/07/21 00:46:30;;;;;;;;;;;;;;;;;;352870;27;821;-62
2022/07/21 00:46:40;;;;;;;;;;;;;;;;;;350616;28;1323;-62
2022/07/21 00:46:51;;;;;;;;;;;;;;;;;;349953;28;992;-62
2022/07/21 00:47:01;;;;;;;;;;;;;;;;;;350046;28;924;-62
2022/07/21 00:47:11;;;;;;;;;;;;;;;;;;350069;28;821;-62
2022/07/21 00:47:22;;;;;;;;;;;;;;;;;;349900;28;826;-62
2022/07/21 00:47:32;;;;;;;;;;;;;;;;;;350029;28;845;-62
2022/07/21 00:47:43;;;;;;;;;;;;;;;;;;350062;28;972;-62
2022/07/21 00:47:53;;;;;;;;;;;;;;;;;;349937;28;897;-62
2022/07/21 00:48:03;;;;;;;;;;;;;;;;;;350057;28;912;-62
2022/07/21 00:48:13;;;;;;;;;;;;;;;;;;350028;28;971;-62
2022/07/21 00:48:24;;;;;;;;;;;;;;;;;;349947;28;896;-62
2022/07/21 00:48:34;;;;;;;;;;;;;;;;;;350016;28;987;-62
2022/07/21 00:48:44;;;;;;;;;;;;;;;;;;350029;28;853;-62
2022/07/21 00:48:54;;;;;;;;;;;;;;;;;;349902;28;1378;-62
2022/07/21 00:49:05;;;;;;;;;;;;;;;;;;350010;28;928;-62
2022/07/21 00:49:15;;;;;;;;;;;;;;;;;;349998;28;895;-62
2022/07/21 00:49:25;;;;;;;;;;;;;;;;;;349915;28;968;-62
2022/07/21 00:49:36;;;;;;;;;;;;;;;;;;349993;27;1020;-62
2022/07/21 00:49:46;;;;;;;;;;;;;;;;;;350042;28;983;-62
2022/07/21 00:49:58;;;;;;;;;;;;;;;;;;349991;28;901;-62
2022/07/21 00:50:10;;;;;;;;;;;;;;;;;;350011;28;879;-62
2022/07/21 00:50:20;;;;;;;;;;;;;;;;;;350035;28;838;-62
2022/07/21 00:50:31;;;;;;;;;;;;;;;;;;350008;28;905;-62
2022/07/21 00:50:42;;;;;;;;;;;;;;;;;;350014;28;951;-62
2022/07/21 00:50:52;;;;;;;;;;;;;;;;;;350020;28;912;-62
2022/07/21 00:51:02;;;;;;;;;;;;;;;;;;349942;28;857;-62
2022/07/21 00:51:12;;;;;;;;;;;;;;;;;;350044;28;964;-62
2022/07/21 00:51:23;;;;;;;;;;;;;;;;;;349979;28;999;-62
2022/07/21 00:51:33;;;;;;;;;;;;;;;;;;349886;28;924;-62
2022/07/21 00:51:43;;;;;;;;;;;;;;;;;;350046;28;904;-62
2022/07/21 00:51:53;;;;;;;;;;;;;;;;;;349996;28;921;-62
2022/07/21 00:52:04;;;;;;;;;;;;;;;;;;349954;28;896;-62
2022/07/21 00:52:14;;;;;;;;;;;;;;;;;;349986;28;1227;-62
2022/07/21 00:52:25;;;;;;;;;;;;;;;;;;350052;28;964;-62
2022/07/21 00:52:35;;;;;;;;;;;;;;;;;;349935;28;925;-62
2022/07/21 00:52:46;;;;;;;;;;;;;;;;;;350021;28;917;-62
2022/07/21 00:52:56;;;;;;;;;;;;;;;;;;349958;28;920;-62
2022/07/21 00:53:06;;;;;;;;;;;;;;;;;;349958;28;869;-62
2022/07/21 00:53:16;;;;;;;;;;;;;;;;;;349990;28;945;-62
2022/07/21 00:53:27;;;;;;;;;;;;;;;;;;350058;28;789;-62
2022/07/21 00:53:37;;;;;;;;;;;;;;;;;;349904;28;932;-62
2022/07/21 00:53:47;;;;;;;;;;;;;;;;;;349953;28;1324;-62
2022/07/21 00:53:57;;;;;;;;;;;;;;;;;;350212;28;924;-62
2022/07/21 00:54:08;;;;;;;;;;;;;;;;;;349970;28;929;-62
2022/07/21 00:54:18;;;;;;;;;;;;;;;;;;349980;28;924;-62
2022/07/21 00:54:29;;;;;;;;;;;;;;;;;;350013;28;980;-62
2022/07/21 00:54:39;;;;;;;;;;;;;;;;;;350848;28;1310;-62
2022/07/21 00:54:49;;;;;;;;;;;;;;;;;;351411;28;794;-62
2022/07/21 00:55:01;;;;;;;;;;;;;;;;;;351399;28;845;-62
2022/07/21 00:55:13;;;;;;;;;;;;;;;;;;351331;28;962;-62
2022/07/21 00:55:24;;;;;;;;;;;;;;;;;;351435;28;873;-62
2022/07/21 00:55:34;;;;;;;;;;;;;;;;;;351393;28;940;-62
2022/07/21 00:55:46;;;;;;;;;;;;;;;;;;351272;28;916;-62
2022/07/21 00:55:56;;;;;;;;;;;;;;;;;;351412;28;932;-62
2022/07/21 00:56:07;;;;;;;;;;;;;;;;;;351467;28;747;-62
2022/07/21 00:56:20;;;;;;;;;;;;;;;;;;351360;28;984;-62
2022/07/21 00:56:30;;;;;;;;;;;;;;;;;;351416;28;913;-62
2022/07/21 00:56:41;;;;;;;;;;;;;;;;;;351344;28;967;-62
2022/07/21 00:56:51;;;;;;;;;;;;;;;;;;351379;28;988;-62
2022/07/21 00:57:02;;;;;;;;;;;;;;;;;;351419;28;781;-62
2022/07/21 00:57:13;;;;;;;;;;;;;;;;;;351424;28;1098;-62
2022/07/21 00:57:23;;;;;;;;;;;;;;;;;;351322;28;932;-62
2022/07/21 00:57:33;;;;;;;;;;;;;;;;;;351455;28;826;-62
2022/07/21 00:57:45;;;;;;;;;;;;;;;;;;351343;28;845;-62
2022/07/21 00:57:55;;;;;;;;;;;;;;;;;;349887;28;992;-62
2022/07/21 00:58:06;;;;;;;;;;;;;;;;;;350018;28;865;-62
2022/07/21 00:58:16;;;;;;;;;;;;;;;;;;350013;28;785;-62
2022/07/21 00:58:26;;;;;;;;;;;;;;;;;;350032;28;967;-62
2022/07/21 00:58:37;;;;;;;;;;;;;;;;;;349978;28;924;-62
2022/07/21 00:58:47;;;;;;;;;;;;;;;;;;350001;28;916;-62
2022/07/21 00:58:57;;;;;;;;;;;;;;;;;;349945;28;912;-62
2022/07/21 00:59:07;;;;;;;;;;;;;;;;;;350050;28;889;-62
2022/07/21 00:59:18;;;;;;;;;;;;;;;;;;350022;28;976;-62
2022/07/21 00:59:29;;;;;;;;;;;;;;;;;;349984;28;993;-62
2022/07/21 00:59:40;;;;;;;;;;;;;;;;;;349904;28;1024;-62
2022/07/21 00:59:50;;;;;;;;;;;;;;;;;;349949;28;829;-62
2022/07/21 01:00:01;;;;;;;;;;;;;;;;;;349931;28;992;-62
2022/07/21 01:00:15;;;;;;;;;;;;;;;;;;349937;28;1011;-62
2022/07/21 01:00:27;;;;;;;;;;;;;;;;;;349968;28;988;-62
2022/07/21 01:00:38;;;;;;;;;;;;;;;;;;350062;28;1054;-62
2022/07/21 01:00:48;;;;;;;;;;;;;;;;;;349989;28;1118;-62
2022/07/21 01:00:59;;;;;;;;;;;;;;;;;;349919;28;1012;-62
2022/07/21 01:01:09;;;;;;;;;;;;;;;;;;349995;28;1000;-62
2022/07/21 01:01:19;;;;;;;;;;;;;;;;;;350028;28;917;-62
2022/07/21 01:01:29;;;;;;;;;;;;;;;;;;349971;28;810;-62
2022/07/21 01:01:40;;;;;;;;;;;;;;;;;;350005;28;916;-62
2022/07/21 01:01:50;;;;;;;;;;;;;;;;;;349955;28;933;-62
2022/07/21 01:02:00;;;;;;;;;;;;;;;;;;349928;28;834;-62
2022/07/21 01:02:12;;;;;;;;;;;;;;;;;;349986;28;818;-62
2022/07/21 01:02:23;;;;;;;;;;;;;;;;;;350020;28;968;-62
2022/07/21 01:02:36;;;;;;;;;;;;;;;;;;350012;28;904;-62
2022/07/21 01:02:46;;;;;;;;;;;;;;;;;;349966;28;975;-62
2022/07/21 01:02:57;;;;;;;;;;;;;;;;;;349942;28;889;-62
2022/07/21 01:03:08;;;;;;;;;;;;;;;;;;350009;28;985;-62
2022/07/21 01:03:18;;;;;;;;;;;;;;;;;;349942;28;976;-62
2022/07/21 01:03:28;;;;;;;;;;;;;;;;;;349951;28;966;-62
2022/07/21 01:03:39;;;;;;;;;;;;;;;;;;349947;28;967;-62
2022/07/21 01:03:49;;;;;;;;;;;;;;;;;;349939;28;758;-62
2022/07/21 01:03:59;;;;;;;;;;;;;;;;;;349886;28;996;-62
2022/07/21 01:04:09;;;;;;;;;;;;;;;;;;350121;28;1359;-62
2022/07/21 01:04:20;;;;;;;;;;;;;;;;;;351434;28;801;-62
2022/07/21 01:04:30;;;;;;;;;;;;;;;;;;351426;28;900;-62
2022/07/21 01:04:40;;;;;;;;;;;;;;;;;;351446;28;825;-62
2022/07/21 01:04:50;;;;;;;;;;;;;;;;;;351314;28;983;-62
2022/07/21 01:05:01;;;;;;;;;;;;;;;;;;351332;28;936;-62
2022/07/21 01:05:15;;;;;;;;;;;;;;;;;;351334;28;1015;-62
2022/07/21 01:05:25;;;;;;;;;;;;;;;;;;351411;28;912;-62
2022/07/21 01:05:35;;;;;;;;;;;;;;;;;;351373;28;916;-62
2022/07/21 01:05:46;;;;;;;;;;;;;;;;;;351330;28;952;-62
2022/07/21 01:05:57;;;;;;;;;;;;;;;;;;351291;28;1973;-62
2022/07/21 01:06:08;;;;;;;;;;;;;;;;;;351304;28;957;-62
2022/07/21 01:06:18;;;;;;;;;;;;;;;;;;351405;28;912;-62
2022/07/21 01:06:28;;;;;;;;;;;;;;;;;;351451;28;850;-62
2022/07/21 01:06:38;;;;;;;;;;;;;;;;;;351379;28;967;-62
2022/07/21 01:06:49;;;;;;;;;;;;;;;;;;351410;28;905;-62
2022/07/21 01:07:02;;;;;;;;;;;;;;;;;;351368;28;924;-62
2022/07/21 01:07:13;;;;;;;;;;;;;;;;;;351448;28;888;-62
2022/07/21 01:07:23;;;;;;;;;;;;;;;;;;350238;28;1479;-61
2022/07/21 01:07:34;;;;;;;;;;;;;;;;;;350713;28;1637;-62
2022/07/21 01:07:45;;;;;;;;;;;;;;;;;;351405;28;952;-62
2022/07/21 01:08:02;;;;;;;;;;;;;;;;;;351123;28;988;-62
2022/07/21 01:08:12;;;;;;;;;;;;;;;;;;351193;28;872;-62
2022/07/21 01:08:22;;;;;;;;;;;;;;;;;;351170;28;864;-61
2022/07/21 01:08:33;;;;;;;;;;;;;;;;;;351325;28;852;-62
2022/07/21 01:08:43;;;;;;;;;;;;;;;;;;351438;28;979;-62
2022/07/21 01:08:54;;;;;;;;;;;;;;;;;;351413;28;904;-62
2022/07/21 01:09:04;;;;;;;;;;;;;;;;;;351349;28;972;-62
2022/07/21 01:09:14;;;;;;;;;;;;;;;;;;351323;28;992;-62
2022/07/21 01:09:24;;;;;;;;;;;;;;;;;;349687;28;1401;-62
2022/07/21 01:09:35;;;;;;;;;;;;;;;;;;350084;28;940;-62
2022/07/21 01:09:45;;;;;;;;;;;;;;;;;;350000;28;987;-63
2022/07/21 01:09:56;;;;;;;;;;;;;;;;;;349911;28;967;-62
2022/07/21 01:10:07;;;;;;;;;;;;;;;;;;350192;28;912;-62
2022/07/21 01:10:19;;;;;;;;;;;;;;;;;;349509;28;1863;-62
2022/07/21 01:10:30;;;;;;;;;;;;;;;;;;352449;28;933;-62
2022/07/21 01:10:40;;;;;;;;;;;;;;;;;;352737;28;928;-62
2022/07/21 01:10:50;;;;;;;;;;;;;;;;;;352818;28;916;-62
2022/07/21 01:11:01;;;;;;;;;;;;;;;;;;352690;28;745;-62
2022/07/21 01:11:11;;;;;;;;;;;;;;;;;;352814;28;972;-62
2022/07/21 01:11:23;;;;;;;;;;;;;;;;;;352762;28;1212;-62
2022/07/21 01:11:34;;;;;;;;;;;;;;;;;;352770;28;1118;-62
2022/07/21 01:11:45;;;;;;;;;;;;;;;;;;352825;28;920;-62
2022/07/21 01:11:55;;;;;;;;;;;;;;;;;;352819;28;901;-62
2022/07/21 01:12:06;;;;;;;;;;;;;;;;;;352715;28;967;-61
2022/07/21 01:12:17;;;;;;;;;;;;;;;;;;352799;28;928;-62
2022/07/21 01:12:27;;;;;;;;;;;;;;;;;;352720;28;962;-62
2022/07/21 01:12:38;;;;;;;;;;;;;;;;;;352784;28;976;-62
2022/07/21 01:12:48;;;;;;;;;;;;;;;;;;352741;28;981;-62
2022/07/21 01:12:59;;;;;;;;;;;;;;;;;;351006;28;1411;-62
2022/07/21 01:13:09;;;;;;;;;;;;;;;;;;350319;28;1491;-62
2022/07/21 01:13:19;;;;;;;;;;;;;;;;;;351406;28;968;-62
2022/07/21 01:13:30;;;;;;;;;;;;;;;;;;351327;28;894;-62
2022/07/21 01:13:41;;;;;;;;;;;;;;;;;;351359;28;904;-62
2022/07/21 01:13:51;;;;;;;;;;;;;;;;;;351422;28;857;-62
2022/07/21 01:14:02;;;;;;;;;;;;;;;;;;351347;28;912;-62
2022/07/21 01:14:12;;;;;;;;;;;;;;;;;;351341;28;932;-62
2022/07/21 01:14:22;;;;;;;;;;;;;;;;;;351368;28;971;-62
2022/07/21 01:14:33;;;;;;;;;;;;;;;;;;351343;28;963;-62
2022/07/21 01:14:43;;;;;;;;;;;;;;;;;;351394;28;841;-62
2022/07/21 01:14:54;;;;;;;;;;;;;;;;;;351366;28;928;-62
2022/07/21 01:15:05;;;;;;;;;;;;;;;;;;351280;28;1013;-62
2022/07/21 01:15:16;;;;;;;;;;;;;;;;;;351389;28;908;-62
2022/07/21 01:15:26;;;;;;;;;;;;;;;;;;351263;28;993;-62
2022/07/21 01:15:36;;;;;;;;;;;;;;;;;;351384;28;920;-62
2022/07/21 01:15:47;;;;;;;;;;;;;;;;;;351410;28;983;-62